sensor_id;sensor_type;location;lat;lon;timestamp;pressure;altitude;pressure_sealevel;temperature;humidity
69402;BME280;56589;51.992;5.924;2023-03-15T00:00:25;100560.19;;;1.94;73.39
69402;BME280;56589;51.992;5.924;2023-03-15T00:02:50;100550.88;;;1.88;73.68
69402;BME280;56589;51.992;5.924;2023-03-15T00:05:16;100560.50;;;1.85;73.97
69402;BME280;56589;51.992;5.924;2023-03-15T00:07:42;100563.16;;;1.83;73.96
69402;BME280;56589;51.992;5.924;2023-03-15T00:10:09;100565.94;;;1.77;74.00
69402;BME280;56589;51.992;5.924;2023-03-15T00:12:36;100569.44;;;1.75;73.96
69402;BME280;56589;51.992;5.924;2023-03-15T00:15:02;100565.09;;;1.75;74.32
69402;BME280;56589;51.992;5.924;2023-03-15T00:17:30;100568.66;;;1.73;74.29
69402;BME280;56589;51.992;5.924;2023-03-15T00:19:56;100564.38;;;1.72;74.54
69402;BME280;56589;51.992;5.924;2023-03-15T00:22:22;100562.97;;;1.61;75.17
69402;BME280;56589;51.992;5.924;2023-03-15T00:24:48;100554.41;;;1.59;75.21
69402;BME280;56589;51.992;5.924;2023-03-15T00:27:13;100553.50;;;1.60;75.74
69402;BME280;56589;51.992;5.924;2023-03-15T00:29:39;100560.47;;;1.58;75.46
69402;BME280;56589;51.992;5.924;2023-03-15T00:32:05;100563.09;;;1.57;75.43
69402;BME280;56589;51.992;5.924;2023-03-15T00:34:33;100563.91;;;1.59;75.33
69402;BME280;56589;51.992;5.924;2023-03-15T00:36:59;100571.63;;;1.60;75.37
69402;BME280;56589;51.992;5.924;2023-03-15T00:39:25;100575.91;;;1.61;75.32
69402;BME280;56589;51.992;5.924;2023-03-15T00:41:51;100576.66;;;1.65;75.28
69402;BME280;56589;51.992;5.924;2023-03-15T00:44:17;100575.72;;;1.67;75.38
69402;BME280;56589;51.992;5.924;2023-03-15T00:46:43;100578.28;;;1.67;75.46
69402;BME280;56589;51.992;5.924;2023-03-15T00:49:09;100575.84;;;1.63;75.53
69402;BME280;56589;51.992;5.924;2023-03-15T00:51:37;100576.03;;;1.57;75.76
69402;BME280;56589;51.992;5.924;2023-03-15T00:54:06;100582.94;;;1.58;75.72
69402;BME280;56589;51.992;5.924;2023-03-15T00:56:32;100580.34;;;1.58;76.14
69402;BME280;56589;51.992;5.924;2023-03-15T00:58:58;100577.75;;;1.58;76.16
69402;BME280;56589;51.992;5.924;2023-03-15T01:01:26;100589.78;;;1.59;75.86
69402;BME280;56589;51.992;5.924;2023-03-15T01:03:53;100586.34;;;1.58;76.95
69402;BME280;56589;51.992;5.924;2023-03-15T01:06:22;100588.94;;;1.58;77.10
69402;BME280;56589;51.992;5.924;2023-03-15T01:08:51;100586.31;;;1.60;76.39
69402;BME280;56589;51.992;5.924;2023-03-15T01:11:20;100588.00;;;1.61;76.67
69402;BME280;56589;51.992;5.924;2023-03-15T01:13:47;100588.75;;;1.64;76.61
69402;BME280;56589;51.992;5.924;2023-03-15T01:16:13;100594.66;;;1.68;76.75
69402;BME280;56589;51.992;5.924;2023-03-15T01:18:40;100598.94;;;1.69;76.21
69402;BME280;56589;51.992;5.924;2023-03-15T01:21:06;100599.78;;;1.69;76.56
69402;BME280;56589;51.992;5.924;2023-03-15T01:23:33;100598.09;;;1.68;76.46
69402;BME280;56589;51.992;5.924;2023-03-15T01:26:04;100601.53;;;1.69;76.82
69402;BME280;56589;51.992;5.924;2023-03-15T01:28:31;100610.91;;;1.73;76.43
69402;BME280;56589;51.992;5.924;2023-03-15T01:30:57;100606.50;;;1.77;76.49
69402;BME280;56589;51.992;5.924;2023-03-15T01:33:23;100612.53;;;1.77;76.33
69402;BME280;56589;51.992;5.924;2023-03-15T01:35:57;100610.84;;;1.75;76.74
69402;BME280;56589;51.992;5.924;2023-03-15T01:38:24;100622.09;;;1.74;76.66
69402;BME280;56589;51.992;5.924;2023-03-15T01:40:50;100619.44;;;1.77;77.12
69402;BME280;56589;51.992;5.924;2023-03-15T01:43:20;100624.50;;;1.80;76.89
69402;BME280;56589;51.992;5.924;2023-03-15T01:46:17;100628.59;;;1.87;76.99
69402;BME280;56589;51.992;5.924;2023-03-15T01:48:50;100633.63;;;1.91;76.85
69402;BME280;56589;51.992;5.924;2023-03-15T01:51:24;100634.50;;;1.92;77.17
69402;BME280;56589;51.992;5.924;2023-03-15T01:53:59;100637.06;;;1.92;77.45
69402;BME280;56589;51.992;5.924;2023-03-15T01:56:32;100641.41;;;1.91;77.13
69402;BME280;56589;51.992;5.924;2023-03-15T01:59:04;100640.44;;;1.94;77.25
69402;BME280;56589;51.992;5.924;2023-03-15T02:01:36;100636.94;;;1.96;77.37
69402;BME280;56589;51.992;5.924;2023-03-15T02:04:08;100645.59;;;1.95;77.21
69402;BME280;56589;51.992;5.924;2023-03-15T02:06:38;100648.22;;;1.94;77.38
69402;BME280;56589;51.992;5.924;2023-03-15T02:09:07;100645.56;;;1.97;77.18
69402;BME280;56589;51.992;5.924;2023-03-15T02:11:35;100648.09;;;1.99;77.28
69402;BME280;56589;51.992;5.924;2023-03-15T02:14:04;100655.06;;;1.96;77.37
69402;BME280;56589;51.992;5.924;2023-03-15T02:16:31;100648.19;;;1.95;77.24
69402;BME280;56589;51.992;5.924;2023-03-15T02:18:57;100646.44;;;1.96;77.41
69402;BME280;56589;51.992;5.924;2023-03-15T02:21:34;100648.03;;;2.00;77.05
69402;BME280;56589;51.992;5.924;2023-03-15T02:24:21;100654.06;;;2.01;77.09
69402;BME280;56589;51.992;5.924;2023-03-15T02:26:55;100656.66;;;2.01;77.40
69402;BME280;56589;51.992;5.924;2023-03-15T02:29:27;100660.13;;;2.00;77.40
69402;BME280;56589;51.992;5.924;2023-03-15T02:31:55;100659.22;;;2.01;77.21
69402;BME280;56589;51.992;5.924;2023-03-15T02:34:22;100661.88;;;1.99;77.33
69402;BME280;56589;51.992;5.924;2023-03-15T02:36:48;100660.97;;;2.00;77.22
69402;BME280;56589;51.992;5.924;2023-03-15T02:39:15;100667.09;;;1.97;77.36
69402;BME280;56589;51.992;5.924;2023-03-15T02:41:45;100672.34;;;1.96;77.21
69402;BME280;56589;51.992;5.924;2023-03-15T02:44:18;100669.03;;;1.91;77.47
69402;BME280;56589;51.992;5.924;2023-03-15T02:46:51;100666.63;;;1.85;77.58
69402;BME280;56589;51.992;5.924;2023-03-15T02:49:23;100677.22;;;1.77;77.57
69402;BME280;56589;51.992;5.924;2023-03-15T02:51:52;100677.41;;;1.71;78.01
69402;BME280;56589;51.992;5.924;2023-03-15T02:54:18;100680.06;;;1.68;77.48
69402;BME280;56589;51.992;5.924;2023-03-15T02:56:44;100685.28;;;1.66;77.44
69402;BME280;56589;51.992;5.924;2023-03-15T02:59:10;100692.28;;;1.63;77.90
69402;BME280;56589;51.992;5.924;2023-03-15T03:01:35;100699.31;;;1.59;78.15
69402;BME280;56589;51.992;5.924;2023-03-15T03:04:04;100699.47;;;1.53;78.04
69402;BME280;56589;51.992;5.924;2023-03-15T03:06:31;100707.28;;;1.52;78.10
69402;BME280;56589;51.992;5.924;2023-03-15T03:08:56;100710.00;;;1.47;77.88
69402;BME280;56589;51.992;5.924;2023-03-15T03:11:22;100720.41;;;1.44;78.03
69402;BME280;56589;51.992;5.924;2023-03-15T03:13:48;100724.00;;;1.40;77.82
69402;BME280;56589;51.992;5.924;2023-03-15T03:16:14;100730.94;;;1.38;77.64
69402;BME280;56589;51.992;5.924;2023-03-15T03:18:40;100732.78;;;1.34;77.94
69402;BME280;56589;51.992;5.924;2023-03-15T03:21:08;100737.13;;;1.32;78.01
69402;BME280;56589;51.992;5.924;2023-03-15T03:23:35;100742.38;;;1.29;77.63
69402;BME280;56589;51.992;5.924;2023-03-15T03:26:02;100744.16;;;1.27;77.88
69402;BME280;56589;51.992;5.924;2023-03-15T03:28:35;100745.09;;;1.25;77.81
69402;BME280;56589;51.992;5.924;2023-03-15T03:31:01;100756.38;;;1.22;78.20
69402;BME280;56589;51.992;5.924;2023-03-15T03:33:27;100756.47;;;1.18;78.10
69402;BME280;56589;51.992;5.924;2023-03-15T03:35:53;100760.84;;;1.15;77.79
69402;BME280;56589;51.992;5.924;2023-03-15T03:38:28;100764.34;;;1.13;78.31
69402;BME280;56589;51.992;5.924;2023-03-15T03:40:53;100769.56;;;1.11;78.00
69402;BME280;56589;51.992;5.924;2023-03-15T03:43:19;100766.97;;;1.11;78.19
69402;BME280;56589;51.992;5.924;2023-03-15T03:45:45;100769.56;;;1.11;77.82
69402;BME280;56589;51.992;5.924;2023-03-15T03:48:11;100776.53;;;1.09;78.17
69402;BME280;56589;51.992;5.924;2023-03-15T03:50:36;100778.28;;;1.07;78.19
69402;BME280;56589;51.992;5.924;2023-03-15T03:53:02;100777.47;;;1.05;78.27
69402;BME280;56589;51.992;5.924;2023-03-15T03:55:31;100783.59;;;1.03;78.14
69402;BME280;56589;51.992;5.924;2023-03-15T03:57:56;100785.38;;;0.99;78.11
69402;BME280;56589;51.992;5.924;2023-03-15T04:00:22;100798.34;;;0.98;78.31
69402;BME280;56589;51.992;5.924;2023-03-15T04:02:48;100800.94;;;0.96;78.30
69402;BME280;56589;51.992;5.924;2023-03-15T04:05:14;100805.31;;;0.94;78.64
69402;BME280;56589;51.992;5.924;2023-03-15T04:07:40;100810.59;;;0.91;78.34
69402;BME280;56589;51.992;5.924;2023-03-15T04:10:06;100809.75;;;0.89;78.60
69402;BME280;56589;51.992;5.924;2023-03-15T04:12:36;100817.53;;;0.87;78.69
69402;BME280;56589;51.992;5.924;2023-03-15T04:15:02;100813.25;;;0.86;78.91
69402;BME280;56589;51.992;5.924;2023-03-15T04:17:28;100825.28;;;0.87;78.92
69402;BME280;56589;51.992;5.924;2023-03-15T04:19:53;100828.78;;;0.86;78.68
69402;BME280;56589;51.992;5.924;2023-03-15T04:22:19;100826.19;;;0.86;78.84
69402;BME280;56589;51.992;5.924;2023-03-15T04:24:45;100827.94;;;0.86;78.54
69402;BME280;56589;51.992;5.924;2023-03-15T04:27:11;100822.75;;;0.86;78.55
69402;BME280;56589;51.992;5.924;2023-03-15T04:29:40;100827.97;;;0.84;78.57
69402;BME280;56589;51.992;5.924;2023-03-15T04:32:06;100835.72;;;0.83;78.77
69402;BME280;56589;51.992;5.924;2023-03-15T04:34:32;100843.47;;;0.84;78.86
69402;BME280;56589;51.992;5.924;2023-03-15T04:36:58;100847.72;;;0.87;78.84
69402;BME280;56589;51.992;5.924;2023-03-15T04:39:24;100851.09;;;0.89;79.17
69402;BME280;56589;51.992;5.924;2023-03-15T04:41:50;100852.75;;;0.93;78.82
69402;BME280;56589;51.992;5.924;2023-03-15T04:44:15;100856.97;;;0.96;79.13
69402;BME280;56589;51.992;5.924;2023-03-15T04:46:44;100862.94;;;0.99;78.94
69402;BME280;56589;51.992;5.924;2023-03-15T04:49:10;100865.47;;;1.01;79.26
69402;BME280;56589;51.992;5.924;2023-03-15T04:51:36;100864.63;;;1.00;78.64
69402;BME280;56589;51.992;5.924;2023-03-15T04:54:02;100863.81;;;0.98;78.83
69402;BME280;56589;51.992;5.924;2023-03-15T04:56:30;100869.91;;;0.96;78.79
69402;BME280;56589;51.992;5.924;2023-03-15T04:58:56;100875.13;;;0.94;78.75
69402;BME280;56589;51.992;5.924;2023-03-15T05:01:26;100878.63;;;0.92;78.90
69402;BME280;56589;51.992;5.924;2023-03-15T05:03:56;100887.31;;;0.87;78.46
69402;BME280;56589;51.992;5.924;2023-03-15T05:06:22;100883.09;;;0.85;78.61
69402;BME280;56589;51.992;5.924;2023-03-15T05:08:49;100896.06;;;0.82;79.12
69402;BME280;56589;51.992;5.924;2023-03-15T05:11:14;100891.69;;;0.84;78.89
69402;BME280;56589;51.992;5.924;2023-03-15T05:13:40;100899.47;;;0.84;79.17
69402;BME280;56589;51.992;5.924;2023-03-15T05:16:06;100906.38;;;0.83;79.08
69402;BME280;56589;51.992;5.924;2023-03-15T05:18:32;100914.13;;;0.83;79.08
69402;BME280;56589;51.992;5.924;2023-03-15T05:21:00;100915.00;;;0.82;79.00
69402;BME280;56589;51.992;5.924;2023-03-15T05:23:26;100921.16;;;0.78;78.98
69402;BME280;56589;51.992;5.924;2023-03-15T05:25:54;100919.50;;;0.74;78.70
69402;BME280;56589;51.992;5.924;2023-03-15T05:28:20;100930.72;;;0.72;79.11
69402;BME280;56589;51.992;5.924;2023-03-15T05:30:47;100922.16;;;0.70;78.70
69402;BME280;56589;51.992;5.924;2023-03-15T05:33:13;100927.38;;;0.68;78.84
69402;BME280;56589;51.992;5.924;2023-03-15T05:35:39;100933.44;;;0.66;78.79
69402;BME280;56589;51.992;5.924;2023-03-15T05:38:08;100939.59;;;0.61;78.92
69402;BME280;56589;51.992;5.924;2023-03-15T05:40:33;100949.06;;;0.59;78.89
69402;BME280;56589;51.992;5.924;2023-03-15T05:42:59;100941.41;;;0.56;78.75
69402;BME280;56589;51.992;5.924;2023-03-15T05:45:25;100944.03;;;0.53;78.84
69402;BME280;56589;51.992;5.924;2023-03-15T05:47:51;100950.09;;;0.52;78.71
69402;BME280;56589;51.992;5.924;2023-03-15T05:50:17;100949.31;;;0.49;78.52
69402;BME280;56589;51.992;5.924;2023-03-15T05:52:42;100946.75;;;0.47;78.62
69402;BME280;56589;51.992;5.924;2023-03-15T05:55:11;100948.47;;;0.47;78.83
69402;BME280;56589;51.992;5.924;2023-03-15T05:57:37;100943.34;;;0.45;78.87
69402;BME280;56589;51.992;5.924;2023-03-15T06:00:06;100949.41;;;0.44;79.10
69402;BME280;56589;51.992;5.924;2023-03-15T06:02:33;100958.91;;;0.42;78.82
69402;BME280;56589;51.992;5.924;2023-03-15T06:04:59;100959.78;;;0.41;79.04
69402;BME280;56589;51.992;5.924;2023-03-15T06:07:25;100962.34;;;0.41;78.93
69402;BME280;56589;51.992;5.924;2023-03-15T06:09:50;100959.75;;;0.43;79.25
69402;BME280;56589;51.992;5.924;2023-03-15T06:12:19;100970.94;;;0.43;79.26
69402;BME280;56589;51.992;5.924;2023-03-15T06:14:44;100974.38;;;0.44;79.00
69402;BME280;56589;51.992;5.924;2023-03-15T06:17:10;100981.25;;;0.45;79.46
69402;BME280;56589;51.992;5.924;2023-03-15T06:19:36;100988.06;;;0.47;79.56
69402;BME280;56589;51.992;5.924;2023-03-15T06:22:02;100994.97;;;0.47;79.13
69402;BME280;56589;51.992;5.924;2023-03-15T06:24:28;101006.16;;;0.47;79.41
69402;BME280;56589;51.992;5.924;2023-03-15T06:26:54;100998.44;;;0.46;79.31
69402;BME280;56589;51.992;5.924;2023-03-15T06:29:22;101014.78;;;0.48;79.82
69402;BME280;56589;51.992;5.924;2023-03-15T06:31:48;101020.72;;;0.51;79.75
69402;BME280;56589;51.992;5.924;2023-03-15T06:34:15;101012.78;;;0.62;80.28
69402;BME280;56589;51.992;5.924;2023-03-15T06:36:41;101008.88;;;0.84;80.79
69402;BME280;56589;51.992;5.924;2023-03-15T06:39:07;101017.84;;;1.08;80.13
69402;BME280;56589;51.992;5.924;2023-03-15T06:41:33;101021.91;;;1.22;79.57
69402;BME280;56589;51.992;5.924;2023-03-15T06:43:59;101016.59;;;1.26;79.58
69402;BME280;56589;51.992;5.924;2023-03-15T06:46:27;101024.22;;;1.32;79.45
69402;BME280;56589;51.992;5.924;2023-03-15T06:48:54;101036.25;;;1.35;79.16
69402;BME280;56589;51.992;5.924;2023-03-15T06:51:19;101032.91;;;1.30;79.67
69402;BME280;56589;51.992;5.924;2023-03-15T06:53:46;101034.66;;;1.29;79.23
69402;BME280;56589;51.992;5.924;2023-03-15T06:56:11;101035.53;;;1.28;79.31
69402;BME280;56589;51.992;5.924;2023-03-15T06:58:37;101038.09;;;1.30;79.21
69402;BME280;56589;51.992;5.924;2023-03-15T07:01:03;101057.75;;;1.37;79.36
69402;BME280;56589;51.992;5.924;2023-03-15T07:03:32;101054.97;;;1.46;79.20
69402;BME280;56589;51.992;5.924;2023-03-15T07:05:58;101061.59;;;1.59;79.51
69402;BME280;56589;51.992;5.924;2023-03-15T07:08:24;101064.69;;;1.74;79.43
69402;BME280;56589;51.992;5.924;2023-03-15T07:10:50;101058.44;;;1.84;79.22
69402;BME280;56589;51.992;5.924;2023-03-15T07:13:17;101075.28;;;2.00;79.35
69402;BME280;56589;51.992;5.924;2023-03-15T07:15:44;101079.25;;;2.15;79.03
69402;BME280;56589;51.992;5.924;2023-03-15T07:18:09;101079.84;;;2.24;79.19
69402;BME280;56589;51.992;5.924;2023-03-15T07:20:38;101092.50;;;2.38;78.67
69402;BME280;56589;51.992;5.924;2023-03-15T07:23:04;101094.88;;;2.46;78.79
69402;BME280;56589;51.992;5.924;2023-03-15T07:25:29;101097.22;;;2.55;78.49
69402;BME280;56589;51.992;5.924;2023-03-15T07:27:55;101098.69;;;2.65;78.85
69402;BME280;56589;51.992;5.924;2023-03-15T07:30:21;101110.47;;;2.77;78.50
69402;BME280;56589;51.992;5.924;2023-03-15T07:32:47;101108.53;;;2.85;78.51
69402;BME280;56589;51.992;5.924;2023-03-15T07:35:13;101110.03;;;2.94;78.21
69402;BME280;56589;51.992;5.924;2023-03-15T07:37:41;101113.31;;;3.00;77.83
69402;BME280;56589;51.992;5.924;2023-03-15T07:40:10;101114.06;;;3.04;77.54
69402;BME280;56589;51.992;5.924;2023-03-15T07:42:37;101115.75;;;3.07;77.58
69402;BME280;56589;51.992;5.924;2023-03-15T07:45:04;101117.25;;;3.14;77.89
69402;BME280;56589;51.992;5.924;2023-03-15T07:47:31;101125.63;;;3.23;78.03
69402;BME280;56589;51.992;5.924;2023-03-15T07:49:57;101128.94;;;3.28;77.64
69402;BME280;56589;51.992;5.924;2023-03-15T07:52:23;101131.38;;;3.35;77.25
69402;BME280;56589;51.992;5.924;2023-03-15T07:54:52;101141.56;;;3.41;77.73
69402;BME280;56589;51.992;5.924;2023-03-15T07:57:18;101144.94;;;3.44;76.81
69402;BME280;56589;51.992;5.924;2023-03-15T07:59:44;101153.53;;;3.46;76.79
69402;BME280;56589;51.992;5.924;2023-03-15T08:02:11;101159.53;;;3.48;76.75
69402;BME280;56589;51.992;5.924;2023-03-15T08:04:37;101160.28;;;3.52;76.78
69402;BME280;56589;51.992;5.924;2023-03-15T08:07:03;101168.78;;;3.57;76.74
69402;BME280;56589;51.992;5.924;2023-03-15T08:09:30;101168.63;;;3.63;77.18
69402;BME280;56589;51.992;5.924;2023-03-15T08:11:58;101176.22;;;3.69;77.09
69402;BME280;56589;51.992;5.924;2023-03-15T08:14:24;101178.78;;;3.71;76.21
69402;BME280;56589;51.992;5.924;2023-03-15T08:16:50;101184.81;;;3.71;76.32
69402;BME280;56589;51.992;5.924;2023-03-15T08:19:16;101186.50;;;3.72;76.27
69402;BME280;56589;51.992;5.924;2023-03-15T08:21:42;101190.66;;;3.79;76.67
69402;BME280;56589;51.992;5.924;2023-03-15T08:24:08;101187.06;;;3.83;76.03
69402;BME280;56589;51.992;5.924;2023-03-15T08:26:33;101194.78;;;3.87;76.03
69402;BME280;56589;51.992;5.924;2023-03-15T08:29:02;101189.44;;;3.91;76.15
69402;BME280;56589;51.992;5.924;2023-03-15T08:31:28;101184.19;;;3.93;75.97
69402;BME280;56589;51.992;5.924;2023-03-15T08:33:54;101190.09;;;3.98;76.18
69402;BME280;56589;51.992;5.924;2023-03-15T08:36:19;101192.59;;;4.01;76.24
69402;BME280;56589;51.992;5.924;2023-03-15T08:38:45;101196.88;;;4.03;75.85
69402;BME280;56589;51.992;5.924;2023-03-15T08:41:11;101207.09;;;4.08;76.39
69402;BME280;56589;51.992;5.924;2023-03-15T08:43:37;101211.41;;;4.09;75.27
69402;BME280;56589;51.992;5.924;2023-03-15T08:46:05;101210.53;;;4.10;74.76
69402;BME280;56589;51.992;5.924;2023-03-15T08:48:31;101211.38;;;4.10;74.37
69402;BME280;56589;51.992;5.924;2023-03-15T08:51:00;101214.72;;;4.14;74.82
69402;BME280;56589;51.992;5.924;2023-03-15T08:53:27;101219.81;;;4.17;74.99
69402;BME280;56589;51.992;5.924;2023-03-15T08:55:53;101224.97;;;4.19;73.60
69402;BME280;56589;51.992;5.924;2023-03-15T08:58:19;101229.41;;;4.15;73.40
69402;BME280;56589;51.992;5.924;2023-03-15T09:00:44;101230.41;;;4.11;72.47
69402;BME280;56589;51.992;5.924;2023-03-15T09:03:15;101226.06;;;4.11;72.81
69402;BME280;56589;51.992;5.924;2023-03-15T09:05:41;101236.31;;;4.16;72.66
69402;BME280;56589;51.992;5.924;2023-03-15T09:08:07;101238.75;;;4.22;73.41
69402;BME280;56589;51.992;5.924;2023-03-15T09:10:33;101234.22;;;4.27;73.40
69402;BME280;56589;51.992;5.924;2023-03-15T09:12:59;101234.94;;;4.32;73.01
69402;BME280;56589;51.992;5.924;2023-03-15T09:15:25;101237.28;;;4.40;73.20
69402;BME280;56589;51.992;5.924;2023-03-15T09:17:51;101243.91;;;4.50;72.73
69402;BME280;56589;51.992;5.924;2023-03-15T09:20:20;101246.25;;;4.58;71.67
69402;BME280;56589;51.992;5.924;2023-03-15T09:22:49;101248.78;;;4.61;70.54
69402;BME280;56589;51.992;5.924;2023-03-15T09:25:17;101248.72;;;4.62;70.30
69402;BME280;56589;51.992;5.924;2023-03-15T09:27:43;101248.78;;;4.61;69.70
69402;BME280;56589;51.992;5.924;2023-03-15T09:30:10;101251.25;;;4.65;69.78
69402;BME280;56589;51.992;5.924;2023-03-15T09:32:37;101248.47;;;4.70;70.06
69402;BME280;56589;51.992;5.924;2023-03-15T09:35:03;101249.31;;;4.71;69.86
69402;BME280;56589;51.992;5.924;2023-03-15T09:37:33;101248.44;;;4.72;68.97
69402;BME280;56589;51.992;5.924;2023-03-15T09:40:00;101246.63;;;4.74;67.40
69402;BME280;56589;51.992;5.924;2023-03-15T09:42:32;101248.38;;;4.73;66.68
69402;BME280;56589;51.992;5.924;2023-03-15T09:45:14;101243.19;;;4.73;67.71
69402;BME280;56589;51.992;5.924;2023-03-15T09:47:54;101252.63;;;4.76;67.70
69402;BME280;56589;51.992;5.924;2023-03-15T09:50:30;101243.91;;;4.77;68.75
69402;BME280;56589;51.992;5.924;2023-03-15T09:53:04;101248.28;;;4.76;68.01
69402;BME280;56589;51.992;5.924;2023-03-15T09:55:38;101258.47;;;4.82;67.78
69402;BME280;56589;51.992;5.924;2023-03-15T09:58:09;101254.78;;;4.91;67.77
69402;BME280;56589;51.992;5.924;2023-03-15T10:00:43;101259.47;;;5.06;68.55
69402;BME280;56589;51.992;5.924;2023-03-15T10:03:15;101257.03;;;5.27;67.64
69402;BME280;56589;51.992;5.924;2023-03-15T10:05:51;101262.63;;;5.41;68.66
69402;BME280;56589;51.992;5.924;2023-03-15T10:08:24;101259.22;;;5.64;68.65
69402;BME280;56589;51.992;5.924;2023-03-15T10:10:52;101253.31;;;5.82;68.43
69402;BME280;56589;51.992;5.924;2023-03-15T10:13:30;101254.44;;;5.98;68.43
69402;BME280;56589;51.992;5.924;2023-03-15T10:16:23;101262.59;;;6.13;67.35
69402;BME280;56589;51.992;5.924;2023-03-15T10:19:04;101262.38;;;6.19;67.36
69402;BME280;56589;51.992;5.924;2023-03-15T10:21:41;101260.06;;;6.33;67.56
69402;BME280;56589;51.992;5.924;2023-03-15T10:24:22;101258.56;;;6.49;66.61
69402;BME280;56589;51.992;5.924;2023-03-15T10:26:55;101264.03;;;6.65;65.81
69402;BME280;56589;51.992;5.924;2023-03-15T10:29:25;101260.84;;;6.79;65.40
69402;BME280;56589;51.992;5.924;2023-03-15T10:31:53;101256.59;;;6.98;65.65
69402;BME280;56589;51.992;5.924;2023-03-15T10:34:19;101261.94;;;7.16;64.37
69402;BME280;56589;51.992;5.924;2023-03-15T10:36:47;101264.03;;;7.28;64.23
69402;BME280;56589;51.992;5.924;2023-03-15T10:39:15;101255.00;;;7.37;62.70
69402;BME280;56589;51.992;5.924;2023-03-15T10:41:45;101255.78;;;7.39;63.95
69402;BME280;56589;51.992;5.924;2023-03-15T10:44:15;101258.84;;;7.48;63.39
69402;BME280;56589;51.992;5.924;2023-03-15T10:46:58;101258.34;;;7.59;62.65
69402;BME280;56589;51.992;5.924;2023-03-15T10:49:32;101258.09;;;7.65;62.59
69402;BME280;56589;51.992;5.924;2023-03-15T10:51:59;101272.16;;;7.63;60.72
69402;BME280;56589;51.992;5.924;2023-03-15T10:54:26;101276.22;;;7.49;62.02
69402;BME280;56589;51.992;5.924;2023-03-15T10:56:58;101283.66;;;7.38;62.50
69402;BME280;56589;51.992;5.924;2023-03-15T10:59:28;101281.81;;;7.40;62.50
69402;BME280;56589;51.992;5.924;2023-03-15T11:02:16;101285.75;;;7.50;60.80
69402;BME280;56589;51.992;5.924;2023-03-15T11:04:48;101290.59;;;7.59;61.78
69402;BME280;56589;51.992;5.924;2023-03-15T11:07:15;101289.97;;;7.73;61.48
69402;BME280;56589;51.992;5.924;2023-03-15T11:09:43;101297.13;;;7.88;60.65
69402;BME280;56589;51.992;5.924;2023-03-15T11:12:22;101303.44;;;8.03;60.39
69402;BME280;56589;51.992;5.924;2023-03-15T11:14:51;101305.56;;;8.14;59.99
69402;BME280;56589;51.992;5.924;2023-03-15T11:17:22;101307.78;;;8.23;59.77
69402;BME280;56589;51.992;5.924;2023-03-15T11:19:53;101312.50;;;8.34;59.25
69402;BME280;56589;51.992;5.924;2023-03-15T11:22:21;101320.38;;;8.34;58.09
69402;BME280;56589;51.992;5.924;2023-03-15T11:24:48;101325.34;;;8.38;58.74
69402;BME280;56589;51.992;5.924;2023-03-15T11:27:18;101326.72;;;8.47;57.57
69402;BME280;56589;51.992;5.924;2023-03-15T11:29:50;101327.69;;;8.45;57.58
69402;BME280;56589;51.992;5.924;2023-03-15T11:32:20;101325.91;;;8.45;56.77
69402;BME280;56589;51.992;5.924;2023-03-15T11:34:55;101330.19;;;8.48;56.54
69402;BME280;56589;51.992;5.924;2023-03-15T11:37:27;101336.97;;;8.52;56.45
69402;BME280;56589;51.992;5.924;2023-03-15T11:40:01;101330.75;;;8.54;55.51
69402;BME280;56589;51.992;5.924;2023-03-15T11:42:42;101333.28;;;8.56;54.96
69402;BME280;56589;51.992;5.924;2023-03-15T11:45:17;101321.03;;;8.56;54.58
69402;BME280;56589;51.992;5.924;2023-03-15T11:47:52;101324.50;;;8.57;53.62
69402;BME280;56589;51.992;5.924;2023-03-15T11:50:22;101319.91;;;8.62;54.60
69402;BME280;56589;51.992;5.924;2023-03-15T11:52:49;101320.31;;;8.72;54.17
69402;BME280;56589;51.992;5.924;2023-03-15T11:55:19;101319.09;;;8.79;53.89
69402;BME280;56589;51.992;5.924;2023-03-15T11:57:51;101326.44;;;8.89;54.22
69402;BME280;56589;51.992;5.924;2023-03-15T12:03:36;101312.22;;;8.95;52.14
69402;BME280;56589;51.992;5.924;2023-03-15T12:06:10;101303.44;;;8.96;52.87
69402;BME280;56589;51.992;5.924;2023-03-15T12:08:57;101304.81;;;9.03;53.21
69402;BME280;56589;51.992;5.924;2023-03-15T12:11:40;101310.69;;;9.08;52.52
69402;BME280;56589;51.992;5.924;2023-03-15T12:14:28;101298.22;;;9.13;52.09
69402;BME280;56589;51.992;5.924;2023-03-15T12:20:07;101295.66;;;8.94;50.28
69402;BME280;56589;51.992;5.924;2023-03-15T12:22:45;101295.88;;;8.90;49.65
69402;BME280;56589;51.992;5.924;2023-03-15T12:25:19;101303.44;;;8.96;50.69
69402;BME280;56589;51.992;5.924;2023-03-15T12:27:55;101306.38;;;9.07;49.70
69402;BME280;56589;51.992;5.924;2023-03-15T12:30:31;101303.44;;;9.13;50.44
69402;BME280;56589;51.992;5.924;2023-03-15T12:33:01;101306.34;;;9.26;50.49
69402;BME280;56589;51.992;5.924;2023-03-15T12:35:30;101310.13;;;9.38;50.41
69402;BME280;56589;51.992;5.924;2023-03-15T12:38:10;101304.06;;;9.53;49.78
69402;BME280;56589;51.992;5.924;2023-03-15T12:40:50;101311.47;;;9.62;49.21
69402;BME280;56589;51.992;5.924;2023-03-15T12:43:37;101299.78;;;9.52;47.49
69402;BME280;56589;51.992;5.924;2023-03-15T12:46:07;101306.78;;;9.34;48.75
69402;BME280;56589;51.992;5.924;2023-03-15T12:49:10;101309.31;;;9.36;47.68
69402;BME280;56589;51.992;5.924;2023-03-15T12:51:42;101304.41;;;9.30;48.45
69402;BME280;56589;51.992;5.924;2023-03-15T12:54:18;101304.84;;;9.20;48.71
69402;BME280;56589;51.992;5.924;2023-03-15T12:56:49;101306.00;;;9.15;47.68
69402;BME280;56589;51.992;5.924;2023-03-15T12:59:32;101306.53;;;9.21;48.76
69402;BME280;56589;51.992;5.924;2023-03-15T13:02:22;101308.25;;;9.40;45.48
69402;BME280;56589;51.992;5.924;2023-03-15T13:05:10;101301.78;;;9.47;47.88
69402;BME280;56589;51.992;5.924;2023-03-15T13:07:51;101302.16;;;9.57;48.32
69402;BME280;56589;51.992;5.924;2023-03-15T13:10:29;101311.47;;;9.62;48.12
69402;BME280;56589;51.992;5.924;2023-03-15T13:13:06;101306.78;;;9.69;48.17
69402;BME280;56589;51.992;5.924;2023-03-15T13:15:42;101305.00;;;9.69;47.10